Time;durP1;ratioP1;P1;durP2;ratioP2;P2;SDS_P1;SDS_P2;PMS_P1;PMS_P2;Temp;Humidity;BMP_temperature;BMP_pressure;BME280_temperature;BME280_humidity;BME280_pressure;Samples;Min_cycle;Max_cycle;Signal;HPM_P1;HPM_P2
2022/01/31 00:02:26;;;;;;;4.78;1.20;;;;;;;1.41;69.27;97026.44;1714332;82;21002;-82
2022/01/31 00:04:56;;;;;;;5.40;1.32;;;;;;;1.30;70.49;97019.14;1714527;82;20993;-83
2022/01/31 00:07:22;;;;;;;4.20;1.30;;;;;;;1.25;69.44;97015.25;1716610;83;21008;-86
2022/01/31 00:09:48;;;;;;;6.97;2.05;;;;;;;1.31;68.76;97014.34;1726598;82;21012;-83
2022/01/31 00:12:18;;;;;;;6.83;1.55;;;;;;;1.33;67.96;97027.39;1723001;83;21485;-82
2022/01/31 00:14:46;;;;;;;6.08;1.60;;;;;;;1.36;67.31;97012.55;1725713;82;20984;-81
2022/01/31 00:17:14;;;;;;;5.87;1.40;;;;;;;1.42;66.68;97016.41;1724438;83;21004;-83
2022/01/31 00:19:44;;;;;;;4.28;1.45;;;;;;;1.44;65.93;97025.11;1727249;83;21362;-81
2022/01/31 00:22:14;;;;;;;7.33;1.35;;;;;;;1.49;65.65;97035.50;1731755;83;21478;-80
2022/01/31 00:24:40;;;;;;;6.22;0.98;;;;;;;1.56;65.43;97038.93;1732028;82;21031;-79
2022/01/31 00:27:09;;;;;;;3.87;0.95;;;;;;;1.56;65.59;97028.48;1697085;84;21461;-79
2022/01/31 00:29:36;;;;;;;4.85;1.32;;;;;;;1.55;65.91;97034.59;1696970;84;20999;-78
2022/01/31 00:32:04;;;;;;;4.22;1.15;;;;;;;1.53;66.26;97034.60;1697130;84;21063;-80
2022/01/31 00:34:31;;;;;;;7.33;1.47;;;;;;;1.50;66.82;97055.97;1675470;85;21084;-80
2022/01/31 00:36:59;;;;;;;5.87;1.12;;;;;;;1.52;66.58;97045.05;1703216;83;20989;-80
2022/01/31 00:39:25;;;;;;;5.78;1.20;;;;;;;1.53;66.69;97029.84;1698799;84;20955;-80
2022/01/31 00:41:51;;;;;;;4.58;1.12;;;;;;;1.51;66.71;97030.27;1697775;84;20960;-79
2022/01/31 00:44:26;;;;;;;5.22;1.22;;;;;;;1.50;66.61;97032.00;1697057;84;21039;-80
2022/01/31 00:46:57;;;;;;;5.10;1.32;;;;;;;1.51;66.57;97025.05;1696100;84;21021;-81
2022/01/31 00:49:36;;;;;;;4.53;1.30;;;;;;;1.50;66.43;97032.47;1696044;84;21091;-81
2022/01/31 00:51:54;;;;;;;7.83;1.30;;;;;;;1.56;66.14;97041.54;1694977;84;21055;-80
2022/01/31 00:54:21;;;;;;;7.03;1.55;;;;;;;1.56;65.71;97039.80;1679566;85;21051;-77
2022/01/31 00:56:50;;;;;;;4.05;1.32;;;;;;;1.60;65.43;97048.47;1679585;85;21044;-81
2022/01/31 00:59:18;;;;;;;11.05;1.55;;;;;;;1.64;65.34;97044.95;1679448;85;21032;-81
2022/01/31 01:01:45;;;;;;;3.92;1.20;;;;;;;1.66;64.92;97043.64;1679477;85;21031;-80
2022/01/31 01:04:12;;;;;;;6.80;1.07;;;;;;;1.70;64.85;97043.59;1679644;85;21061;-81
2022/01/31 01:06:39;;;;;;;7.42;1.32;;;;;;;1.70;64.59;97051.42;1679707;85;21016;-81
2022/01/31 01:09:06;;;;;;;4.80;1.60;;;;;;;1.74;64.47;97044.88;1669869;85;21007;-81
2022/01/31 01:11:32;;;;;;;5.12;1.67;;;;;;;1.76;64.31;97037.88;1724565;83;20982;-82
2022/01/31 01:13:59;;;;;;;5.75;1.60;;;;;;;1.77;64.27;97036.98;1725038;82;21436;-79
2022/01/31 01:16:26;;;;;;;5.65;1.10;;;;;;;1.79;63.50;97036.09;1724752;83;21546;-81
2022/01/31 01:18:53;;;;;;;8.68;1.62;;;;;;;1.81;63.50;97026.51;1724518;83;21061;-81
2022/01/31 01:21:19;;;;;;;5.95;1.65;;;;;;;1.83;62.91;97031.27;1708200;83;20995;-81
2022/01/31 01:23:45;;;;;;;5.17;1.25;;;;;;;1.82;62.48;97036.50;1724539;83;21027;-82
2022/01/31 01:26:12;;;;;;;5.65;1.02;;;;;;;1.84;62.36;97035.60;1724526;83;21385;-81
2022/01/31 01:28:39;;;;;;;7.53;1.30;;;;;;;1.83;62.19;97033.03;1725646;82;21087;-81
2022/01/31 01:31:05;;;;;;;3.58;1.32;;;;;;;1.84;62.29;97040.83;1724349;83;21030;-81
2022/01/31 01:33:38;;;;;;;5.33;1.17;;;;;;;1.88;62.09;97029.92;1724037;83;21017;-80
2022/01/31 01:36:04;;;;;;;4.90;1.57;;;;;;;1.90;62.29;97026.84;1723582;83;21003;-80
2022/01/31 01:38:31;;;;;;;4.50;1.62;;;;;;;1.91;61.72;97023.34;1724488;83;21031;-80
2022/01/31 01:40:59;;;;;;;7.75;2.10;;;;;;;1.93;61.77;97021.59;1724380;83;20975;-79
2022/01/31 01:43:30;;;;;;;5.05;1.20;;;;;;;1.91;61.70;97018.58;1724453;83;20979;-79
2022/01/31 01:45:58;;;;;;;6.47;1.70;;;;;;;1.91;61.37;97020.73;1724851;83;21079;-79
2022/01/31 01:48:27;;;;;;;7.20;1.40;;;;;;;1.89;61.21;97019.89;1724414;83;21095;-79
2022/01/31 01:50:56;;;;;;;5.15;1.87;;;;;;;1.83;60.86;97028.65;1724708;82;21031;-80
2022/01/31 01:53:24;;;;;;;5.05;1.10;;;;;;;1.83;60.76;97022.12;1724489;83;21019;-79
2022/01/31 01:55:53;;;;;;;5.70;1.37;;;;;;;1.80;60.37;97026.09;1724499;83;21085;-82
2022/01/31 01:58:25;;;;;;;5.78;1.25;;;;;;;1.83;60.42;97010.82;1720806;82;21012;-80
2022/01/31 02:00:59;;;;;;;5.70;1.17;;;;;;;1.86;59.55;97012.53;1719637;82;21909;-80
2022/01/31 02:03:43;;;;;;;3.72;1.10;;;;;;;1.92;59.23;97016.38;1717194;82;21037;-80
2022/01/31 02:06:10;;;;;;;7.70;1.87;;;;;;;1.88;58.85;97022.09;1724065;83;21037;-79
2022/01/31 02:08:41;;;;;;;6.37;1.62;;;;;;;1.96;58.55;97010.25;1721310;82;21098;-79
2022/01/31 02:11:11;;;;;;;5.90;1.40;;;;;;;1.95;58.37;97006.75;1719244;83;21011;-80
2022/01/31 02:13:40;;;;;;;5.72;1.40;;;;;;;1.96;58.31;97015.47;1718706;83;21046;-81
2022/01/31 02:16:08;;;;;;;7.95;1.52;;;;;;;1.94;58.14;97012.87;1719287;82;21070;-80
2022/01/31 02:18:44;;;;;;;4.33;1.20;;;;;;;1.97;58.36;97019.38;1700856;82;21327;-80
2022/01/31 02:21:07;;;;;;;8.80;1.40;;;;;;;1.93;57.98;97009.84;1738297;82;21045;-80
2022/01/31 02:23:34;;;;;;;5.20;1.10;;;;;;;1.94;57.67;97018.52;1739540;82;21005;-81
2022/01/31 02:26:05;;;;;;;5.42;1.35;;;;;;;1.97;57.88;97015.89;1723078;82;21002;-81
2022/01/31 02:28:41;;;;;;;4.33;0.82;;;;;;;1.94;57.83;97020.70;1715773;82;20968;-81
2022/01/31 02:31:08;;;;;;;6.12;1.60;;;;;;;1.99;57.43;97012.80;1719548;83;20991;-80
2022/01/31 02:33:34;;;;;;;6.58;1.32;;;;;;;2.03;57.75;97030.64;1719533;83;21467;-81
2022/01/31 02:36:05;;;;;;;4.87;1.10;;;;;;;2.02;57.76;97023.23;1719640;83;21046;-80
2022/01/31 02:38:32;;;;;;;7.40;1.40;;;;;;;2.05;58.36;97024.95;1719562;82;21432;-79
2022/01/31 02:41:00;;;;;;;5.87;1.35;;;;;;;2.05;58.58;97027.13;1719220;83;21022;-79
2022/01/31 02:43:30;;;;;;;5.17;1.80;;;;;;;2.03;58.59;97029.34;1719491;83;21002;-79
2022/01/31 02:45:58;;;;;;;6.45;1.67;;;;;;;2.01;58.85;97029.78;1719137;82;21054;-79
2022/01/31 02:48:28;;;;;;;4.55;1.90;;;;;;;2.02;59.25;97029.77;1719633;82;21014;-79
2022/01/31 02:50:55;;;;;;;8.13;1.50;;;;;;;2.00;58.99;97021.52;1728290;82;21446;-79
2022/01/31 02:53:28;;;;;;;5.85;1.37;;;;;;;2.01;59.03;97006.26;1744648;82;21434;-79
2022/01/31 02:55:57;;;;;;;8.03;1.92;;;;;;;2.01;58.76;97016.71;1744437;82;21024;-80
2022/01/31 02:58:27;;;;;;;6.80;1.50;;;;;;;1.94;58.90;97019.41;1744719;82;21003;-80
2022/01/31 03:00:57;;;;;;;5.28;1.77;;;;;;;1.97;58.58;97018.08;1744591;82;21067;-79
2022/01/31 03:03:31;;;;;;;4.42;1.75;;;;;;;1.96;58.16;97016.31;1740418;82;21111;-79
2022/01/31 03:05:58;;;;;;;4.85;0.98;;;;;;;1.92;58.35;97018.56;1685007;85;21438;-79
2022/01/31 03:08:25;;;;;;;4.47;1.15;;;;;;;1.95;58.27;97015.90;1684773;84;21393;-79
2022/01/31 03:10:55;;;;;;;6.05;1.30;;;;;;;1.97;58.56;97029.83;1684996;85;21044;-79
2022/01/31 03:13:40;;;;;;;6.00;1.40;;;;;;;1.97;58.78;97020.69;1701456;82;21004;-79
2022/01/31 03:16:06;;;;;;;8.50;1.80;;;;;;;1.96;59.11;97025.46;1725544;82;21021;-79
2022/01/31 03:18:40;;;;;;;8.43;1.85;;;;;;;1.94;59.23;97025.05;1741591;82;21433;-79
2022/01/31 03:21:06;;;;;;;5.53;1.27;;;;;;;1.84;59.30;97032.14;1744688;82;21075;-79
2022/01/31 03:23:34;;;;;;;7.37;1.22;;;;;;;1.83;59.34;97025.19;1744459;82;20989;-79
2022/01/31 03:26:01;;;;;;;7.70;1.67;;;;;;;1.85;59.10;97045.63;1744263;82;21013;-78
2022/01/31 03:28:28;;;;;;;9.60;1.52;;;;;;;1.88;59.43;97031.66;1744543;82;20981;-78
2022/01/31 03:30:56;;;;;;;6.85;1.40;;;;;;;1.84;59.29;97027.77;1744225;82;21087;-78
2022/01/31 03:33:24;;;;;;;6.20;1.85;;;;;;;1.84;59.07;97024.30;1744771;82;20985;-79
2022/01/31 03:35:50;;;;;;;6.95;1.70;;;;;;;1.82;59.11;97022.13;1743845;82;21005;-79
2022/01/31 03:38:16;;;;;;;5.85;1.60;;;;;;;1.77;58.89;97029.15;1719850;82;21022;-79
2022/01/31 03:40:43;;;;;;;6.50;1.62;;;;;;;1.79;58.55;97036.55;1719633;83;21003;-79
2022/01/31 03:43:09;;;;;;;6.47;1.42;;;;;;;1.77;58.35;97022.62;1719575;82;21441;-78
2022/01/31 03:45:36;;;;;;;6.12;1.22;;;;;;;1.79;58.45;97018.27;1719708;82;21126;-79
2022/01/31 03:48:06;;;;;;;9.75;1.60;;;;;;;1.75;58.33;97015.25;1717242;83;21134;-79
2022/01/31 03:50:33;;;;;;;6.40;1.75;;;;;;;1.79;58.53;97016.95;1719612;83;20991;-78
2022/01/31 03:53:01;;;;;;;4.75;1.45;;;;;;;1.77;58.39;97011.74;1719709;83;21433;-78
2022/01/31 03:55:27;;;;;;;8.15;1.60;;;;;;;1.74;58.31;97020.06;1719574;82;21028;-78
2022/01/31 03:57:55;;;;;;;8.18;1.45;;;;;;;1.75;58.44;97023.09;1719541;83;20995;-79
2022/01/31 04:00:26;;;;;;;6.45;1.52;;;;;;;1.74;58.73;97029.20;1736880;82;21542;-79
2022/01/31 04:02:53;;;;;;;5.78;1.47;;;;;;;1.71;58.89;97039.23;1744598;82;21426;-79
2022/01/31 04:05:19;;;;;;;9.15;1.42;;;;;;;1.72;59.18;97033.12;1723259;82;20978;-79
2022/01/31 04:07:45;;;;;;;6.05;1.50;;;;;;;1.70;59.33;97029.64;1719897;83;21017;-79
2022/01/31 04:10:12;;;;;;;6.97;1.60;;;;;;;1.71;59.39;97033.55;1732566;82;21068;-79
2022/01/31 04:12:38;;;;;;;7.78;2.20;;;;;;;1.71;59.49;97030.94;1732325;83;21017;-79
2022/01/31 04:15:06;;;;;;;10.35;1.65;;;;;;;1.74;59.78;97032.66;1732425;82;21514;-79
2022/01/31 04:17:33;;;;;;;7.97;1.90;;;;;;;1.73;59.78;97040.08;1732529;82;21387;-79
2022/01/31 04:19:59;;;;;;;8.88;1.80;;;;;;;1.73;59.89;97033.55;1732495;82;20985;-78
2022/01/31 04:22:29;;;;;;;4.62;1.30;;;;;;;1.70;60.05;97040.97;1739130;82;21023;-79
2022/01/31 04:24:59;;;;;;;6.10;1.70;;;;;;;1.71;60.17;97038.78;1752594;81;21028;-78
2022/01/31 04:27:28;;;;;;;13.68;1.92;;;;;;;1.74;60.35;97040.49;1752168;82;20997;-78
2022/01/31 04:29:52;;;;;;;11.00;1.80;;;;;;;1.73;60.67;97043.15;1752306;82;21004;-78
2022/01/31 04:32:18;;;;;;;7.95;1.70;;;;;;;1.69;60.90;97031.41;1752505;82;20961;-79
2022/01/31 04:34:44;;;;;;;6.95;1.92;;;;;;;1.66;60.93;97030.59;1752795;82;21430;-79
2022/01/31 04:37:10;;;;;;;8.83;2.00;;;;;;;1.64;60.87;97027.10;1752746;82;21000;-79
2022/01/31 04:39:37;;;;;;;9.03;1.85;;;;;;;1.58;60.92;97033.27;1752571;82;21062;-79
2022/01/31 04:42:06;;;;;;;5.03;1.45;;;;;;;1.62;60.99;97022.34;1752789;82;21418;-79
2022/01/31 04:44:35;;;;;;;7.00;1.57;;;;;;;1.62;61.03;97019.73;1752082;82;20964;-79
2022/01/31 04:47:02;;;;;;;9.33;1.67;;;;;;;1.59;61.05;97012.80;1732496;82;21069;-80
2022/01/31 04:49:33;;;;;;;6.20;1.80;;;;;;;1.59;61.08;97010.19;1732420;82;20967;-80
2022/01/31 04:51:58;;;;;;;6.65;1.65;;;;;;;1.57;61.04;97014.54;1732541;82;21401;-80
2022/01/31 04:54:25;;;;;;;7.05;1.40;;;;;;;1.57;61.25;97018.45;1732515;82;21053;-80
2022/01/31 04:56:51;;;;;;;8.28;2.02;;;;;;;1.52;61.54;97020.24;1732550;83;21085;-80
2022/01/31 04:59:18;;;;;;;6.53;1.62;;;;;;;1.50;61.83;97014.19;1732481;82;21058;-80
2022/01/31 05:01:46;;;;;;;7.78;1.50;;;;;;;1.48;61.58;97018.53;1731832;82;20984;-79
2022/01/31 05:04:14;;;;;;;6.12;1.22;;;;;;;1.45;61.66;97017.70;1732504;83;21009;-80
2022/01/31 05:06:42;;;;;;;8.20;1.57;;;;;;;1.41;61.85;97007.31;1732520;82;21386;-80
2022/01/31 05:09:10;;;;;;;8.98;2.00;;;;;;;1.38;61.61;97006.90;1747492;82;21020;-81
2022/01/31 05:11:36;;;;;;;6.72;1.62;;;;;;;1.36;61.49;97020.38;1752684;82;21255;-81
2022/01/31 05:14:03;;;;;;;8.68;1.87;;;;;;;1.31;60.67;97017.83;1752625;81;21004;-81
2022/01/31 05:16:29;;;;;;;6.10;1.95;;;;;;;1.31;60.82;97020.86;1752661;81;20956;-80
2022/01/31 05:18:55;;;;;;;7.17;2.02;;;;;;;1.28;60.60;97027.41;1752707;82;21008;-79
2022/01/31 05:21:22;;;;;;;6.00;1.60;;;;;;;1.27;60.63;97027.86;1752571;82;21020;-79
2022/01/31 05:23:49;;;;;;;5.70;1.65;;;;;;;1.25;60.47;97035.28;1752759;82;21422;-80
2022/01/31 05:26:17;;;;;;;10.88;1.32;;;;;;;1.27;59.94;97039.61;1752723;81;21032;-80
2022/01/31 05:28:43;;;;;;;5.03;1.25;;;;;;;1.28;59.25;97041.77;1752622;81;21004;-80
2022/01/31 05:31:09;;;;;;;8.03;1.55;;;;;;;1.31;59.04;97036.53;1744514;82;21003;-79
2022/01/31 05:33:36;;;;;;;11.60;1.55;;;;;;;1.33;58.95;97030.88;1732477;82;20986;-79
2022/01/31 05:36:02;;;;;;;5.20;1.80;;;;;;;1.31;58.72;97036.11;1732372;82;21030;-79
2022/01/31 05:38:28;;;;;;;4.33;1.50;;;;;;;1.31;58.89;97032.19;1732517;82;21046;-79
2022/01/31 05:40:55;;;;;;;8.00;2.00;;;;;;;1.31;58.87;97033.92;1732503;82;21037;-80
2022/01/31 05:43:21;;;;;;;6.65;1.45;;;;;;;1.24;58.47;97034.86;1732409;82;21073;-79
2022/01/31 05:45:47;;;;;;;11.97;4.83;;;;;;;1.25;59.06;97032.22;1732402;83;21002;-80
2022/01/31 05:48:18;;;;;;;5.40;2.08;;;;;;;1.21;59.14;97047.50;1732404;82;20954;-79
2022/01/31 05:50:42;;;;;;;6.40;1.95;;;;;;;1.18;59.33;97041.86;1731970;82;21050;-78
2022/01/31 05:53:08;;;;;;;7.03;1.37;;;;;;;1.11;59.24;97043.20;1734459;82;21005;-78
2022/01/31 05:55:34;;;;;;;7.22;2.20;;;;;;;1.05;59.19;97050.19;1752667;81;21477;-79
2022/01/31 05:58:00;;;;;;;8.83;2.10;;;;;;;1.07;59.26;97053.25;1752297;82;21031;-79
2022/01/31 06:00:27;;;;;;;7.70;1.67;;;;;;;1.08;59.45;97053.22;1752668;82;21008;-79
2022/01/31 06:02:58;;;;;;;10.15;1.90;;;;;;;1.04;59.31;97047.16;1739576;82;21024;-79
2022/01/31 06:05:26;;;;;;;4.53;1.60;;;;;;;1.05;59.25;97046.28;1732488;83;20992;-79
2022/01/31 06:07:52;;;;;;;5.45;1.72;;;;;;;1.01;59.51;97051.54;1732377;83;21013;-79
2022/01/31 06:10:22;;;;;;;6.10;1.70;;;;;;;0.97;59.50;97055.92;1721293;83;21013;-79
2022/01/31 06:12:47;;;;;;;6.58;1.62;;;;;;;0.92;59.61;97048.56;1719454;83;21060;-79
2022/01/31 06:15:13;;;;;;;6.12;2.00;;;;;;;0.84;59.98;97046.43;1719613;83;20961;-79
2022/01/31 06:17:40;;;;;;;5.42;1.90;;;;;;;0.79;60.03;97057.75;1737794;82;20987;-79
2022/01/31 06:20:07;;;;;;;10.00;1.90;;;;;;;0.78;60.15;97056.45;1744595;82;21012;-79
2022/01/31 06:22:34;;;;;;;7.55;1.82;;;;;;;0.74;60.31;97065.16;1744481;82;21423;-79
2022/01/31 06:25:00;;;;;;;10.40;2.25;;;;;;;0.72;60.49;97062.59;1744296;82;20973;-79
2022/01/31 06:27:28;;;;;;;7.12;1.45;;;;;;;0.67;60.90;97076.52;1741029;82;20977;-80
2022/01/31 06:29:55;;;;;;;6.45;1.67;;;;;;;0.67;60.98;97072.60;1744458;82;21008;-79
2022/01/31 06:32:26;;;;;;;12.15;2.40;;;;;;;0.66;61.01;97063.91;1744468;82;21033;-79
2022/01/31 06:34:53;;;;;;;7.95;2.30;;;;;;;0.64;61.11;97063.05;1744466;82;20941;-79
2022/01/31 06:37:19;;;;;;;7.10;2.15;;;;;;;0.58;61.42;97061.33;1744434;82;21450;-79
2022/01/31 06:39:46;;;;;;;7.83;2.10;;;;;;;0.57;61.67;97061.33;1732603;82;20983;-79
2022/01/31 06:42:12;;;;;;;20.52;6.80;;;;;;;0.56;61.50;97066.13;1719688;83;21046;-80
2022/01/31 06:44:39;;;;;;;9.03;2.45;;;;;;;0.52;61.46;97071.38;1719582;83;21002;-80
2022/01/31 06:47:06;;;;;;;7.72;2.08;;;;;;;0.52;61.53;97063.98;1719654;82;21105;-80
2022/01/31 06:49:33;;;;;;;10.63;2.52;;;;;;;0.52;61.66;97063.55;1719508;82;21011;-80
2022/01/31 06:51:59;;;;;;;10.43;2.05;;;;;;;0.51;61.44;97061.80;1719652;82;20994;-80
2022/01/31 06:54:25;;;;;;;10.40;2.52;;;;;;;0.54;61.36;97058.30;1719362;82;21459;-80
2022/01/31 06:56:52;;;;;;;7.90;1.92;;;;;;;0.59;61.07;97067.00;1719686;82;21077;-79
2022/01/31 06:59:18;;;;;;;9.23;2.58;;;;;;;0.63;61.06;97067.84;1719540;82;21060;-80
2022/01/31 07:01:45;;;;;;;6.12;2.62;;;;;;;0.67;60.86;97076.09;1718498;82;21004;-80
2022/01/31 07:04:11;;;;;;;7.78;2.00;;;;;;;0.70;60.41;97064.32;1696865;82;21026;-80
2022/01/31 07:06:37;;;;;;;6.65;2.08;;;;;;;0.74;60.34;97065.16;1719463;82;21407;-80
2022/01/31 07:09:04;;;;;;;7.55;1.50;;;;;;;0.79;60.31;97059.52;1722354;82;21038;-79
2022/01/31 07:11:35;;;;;;;9.48;2.20;;;;;;;0.88;59.69;97067.72;1732571;82;20997;-80
2022/01/31 07:14:08;;;;;;;8.10;1.65;;;;;;;0.98;59.88;97063.29;1731945;82;21011;-80
2022/01/31 07:16:36;;;;;;;6.55;2.33;;;;;;;1.08;60.03;97061.50;1732292;82;21045;-81
2022/01/31 07:19:09;;;;;;;10.75;2.20;;;;;;;1.22;59.86;97065.31;1732543;82;20998;-81
2022/01/31 07:21:37;;;;;;;10.82;2.67;;;;;;;1.31;59.23;97069.16;1731022;82;21060;-80
2022/01/31 07:24:15;;;;;;;9.08;2.55;;;;;;;1.30;58.52;97066.13;1738138;82;21036;-80
2022/01/31 07:26:31;;;;;;;9.28;2.77;;;;;;;1.29;58.86;97066.55;1749495;82;21060;-80
2022/01/31 07:28:57;;;;;;;8.25;2.58;;;;;;;1.28;59.40;97066.56;1750958;82;21099;-80
2022/01/31 07:31:24;;;;;;;10.23;2.47;;;;;;;1.28;59.76;97065.26;1737563;82;21375;-80
2022/01/31 07:33:51;;;;;;;11.53;2.87;;;;;;;1.25;60.01;97052.25;1731001;83;21052;-79
2022/01/31 07:36:17;;;;;;;10.72;2.75;;;;;;;1.20;60.24;97047.05;1695409;84;21453;-80
2022/01/31 07:38:44;;;;;;;13.32;3.10;;;;;;;1.22;60.25;97050.95;1682731;85;21012;-81
2022/01/31 07:41:14;;;;;;;13.58;3.00;;;;;;;1.29;60.15;97042.22;1694275;84;21436;-79
2022/01/31 07:43:43;;;;;;;14.90;3.37;;;;;;;1.36;60.13;97037.81;1695883;84;20960;-81
2022/01/31 07:46:07;;;;;;;11.33;3.00;;;;;;;1.42;60.19;97038.59;1695821;84;21060;-81
2022/01/31 07:48:34;;;;;;;12.30;2.87;;;;;;;1.45;59.68;97035.98;1695659;84;21437;-79
2022/01/31 07:51:01;;;;;;;9.13;2.75;;;;;;;1.49;59.48;97038.11;1696114;85;21024;-80
2022/01/31 07:53:27;;;;;;;8.00;2.52;;;;;;;1.53;59.71;97029.84;1696869;84;21021;-82
2022/01/31 07:55:54;;;;;;;12.07;2.55;;;;;;;1.53;59.76;97028.53;1679952;85;21016;-80
2022/01/31 07:58:20;;;;;;;11.97;2.80;;;;;;;1.49;59.51;97035.50;1672087;84;20987;-76
2022/01/31 08:00:47;;;;;;;10.58;2.58;;;;;;;1.48;59.66;97029.86;1695978;84;21133;-79
2022/01/31 08:03:14;;;;;;;9.93;3.17;;;;;;;1.36;59.41;97029.52;1677383;85;21028;-78
2022/01/31 08:05:41;;;;;;;14.95;3.02;;;;;;;1.34;59.71;97020.85;1678968;85;21055;-79
2022/01/31 08:08:08;;;;;;;11.97;3.00;;;;;;;1.30;59.77;97040.02;1696685;84;21019;-78
2022/01/31 08:10:37;;;;;;;12.45;2.52;;;;;;;1.26;59.96;97025.26;1665122;85;21084;-78
2022/01/31 08:13:05;;;;;;;14.28;3.08;;;;;;;1.25;60.13;97028.30;1731470;82;21446;-79
2022/01/31 08:15:34;;;;;;;11.43;2.60;;;;;;;1.29;60.13;97018.72;1715214;82;21485;-79
2022/01/31 08:18:00;;;;;;;9.58;2.60;;;;;;;1.28;59.26;97013.05;1685082;85;21006;-79
2022/01/31 08:20:26;;;;;;;11.35;2.72;;;;;;;1.35;59.60;97012.14;1690346;82;21056;-83
2022/01/31 08:22:53;;;;;;;8.63;2.33;;;;;;;1.46;59.66;97004.22;1732659;82;21007;-83
2022/01/31 08:25:19;;;;;;;4.90;1.70;;;;;;;1.58;59.31;97005.39;1722219;82;21426;-80
2022/01/31 08:27:48;;;;;;;8.20;2.35;;;;;;;1.63;57.58;96996.64;1722268;82;21042;-78
2022/01/31 08:30:20;;;;;;;9.93;2.02;;;;;;;1.69;57.23;97003.11;1718909;83;22213;-78
2022/01/31 08:32:59;;;;;;;10.35;2.62;;;;;;;1.73;57.35;96994.83;1718726;83;21019;-81
2022/01/31 08:38:01;;;;;;;8.00;1.77;;;;;;;1.81;56.88;96978.17;1679826;85;21078;-81
2022/01/31 08:40:27;;;;;;;12.50;2.02;;;;;;;1.93;56.05;96970.64;1676228;85;21003;-81
2022/01/31 08:42:54;;;;;;;7.55;2.22;;;;;;;1.88;55.30;96985.94;1691254;82;20974;-81
2022/01/31 08:45:20;;;;;;;8.80;2.00;;;;;;;2.01;55.96;96979.70;1739417;82;20970;-81
2022/01/31 08:47:47;;;;;;;7.75;2.02;;;;;;;2.05;55.10;96960.48;1728938;82;21421;-82
2022/01/31 08:50:13;;;;;;;11.05;2.25;;;;;;;2.18;55.96;96957.27;1739366;82;21005;-79
2022/01/31 08:52:40;;;;;;;10.18;2.92;;;;;;;2.33;55.50;96960.11;1744594;82;20988;-81
2022/01/31 08:55:09;;;;;;;10.07;1.73;;;;;;;2.38;54.05;96969.22;1744595;82;21083;-81
2022/01/31 08:57:36;;;;;;;6.20;1.47;;;;;;;2.32;53.64;96952.31;1743987;82;21028;-81
2022/01/31 09:00:06;;;;;;;11.05;2.27;;;;;;;2.38;53.68;96946.98;1717835;83;21068;-81
2022/01/31 09:02:39;;;;;;;10.70;2.35;;;;;;;2.47;54.55;96940.76;1714686;83;21004;-81
2022/01/31 09:05:06;;;;;;;10.70;1.90;;;;;;;2.42;53.17;96948.68;1699526;83;21005;-81
2022/01/31 09:07:33;;;;;;;23.75;5.97;;;;;;;2.40;53.86;96931.28;1713214;82;21005;-81
2022/01/31 09:10:01;;;;;;;6.90;1.70;;;;;;;2.44;54.63;96931.20;1707587;82;20957;-81
2022/01/31 09:12:31;;;;;;;11.35;1.70;;;;;;;2.46;53.99;96907.19;1722587;82;21000;-81
2022/01/31 09:14:57;;;;;;;9.50;2.17;;;;;;;2.44;53.25;96925.09;1721786;82;21409;-81
2022/01/31 09:17:23;;;;;;;10.38;1.90;;;;;;;2.47;53.70;96927.68;1714887;83;21064;-81
2022/01/31 09:19:50;;;;;;;11.90;2.00;;;;;;;2.42;53.62;96920.34;1713574;83;20999;-81
2022/01/31 09:22:16;;;;;;;8.33;2.20;;;;;;;2.44;53.50;96894.59;1707303;83;21132;-81
2022/01/31 09:24:44;;;;;;;10.25;1.92;;;;;;;2.45;54.08;96894.16;1742976;82;21467;-81
2022/01/31 09:27:11;;;;;;;8.15;2.50;;;;;;;2.47;53.63;96897.61;1752520;82;21011;-81
2022/01/31 09:29:38;;;;;;;12.30;2.33;;;;;;;2.47;53.87;96894.56;1752494;82;20976;-80
2022/01/31 09:32:05;;;;;;;8.55;2.25;;;;;;;2.45;53.47;96879.31;1752548;82;21004;-81
2022/01/31 09:34:32;;;;;;;10.08;1.80;;;;;;;2.50;53.95;96887.95;1738215;82;21002;-80
2022/01/31 09:37:00;;;;;;;14.18;2.62;;;;;;;2.53;53.84;96884.42;1732397;82;20998;-81
2022/01/31 09:39:27;;;;;;;10.50;2.52;;;;;;;2.59;54.08;96875.63;1732473;83;21002;-76
2022/01/31 09:41:57;;;;;;;8.80;2.35;;;;;;;2.65;54.33;96879.45;1732332;83;21070;-76
2022/01/31 09:47:19;;;;;;;12.75;2.50;;;;;;;2.68;53.22;96883.77;1752413;81;21000;-76
2022/01/31 09:49:34;;;;;;;13.40;2.50;;;;;;;2.74;53.67;96886.31;1732784;82;21007;-75
2022/01/31 09:52:01;;;;;;;12.47;2.62;;;;;;;2.72;52.36;96883.71;1732428;82;20999;-76
2022/01/31 09:54:28;;;;;;;9.33;2.42;;;;;;;2.69;53.11;96868.05;1742753;82;21107;-75
2022/01/31 09:56:57;;;;;;;13.18;2.50;;;;;;;2.64;52.74;96869.45;1730814;82;21113;-76
2022/01/31 09:59:23;;;;;;;11.73;2.35;;;;;;;2.67;52.91;96861.99;1732582;82;20984;-76
2022/01/31 10:01:54;;;;;;;12.63;2.35;;;;;;;2.73;52.88;96863.63;1732035;82;21018;-76
2022/01/31 10:04:24;;;;;;;14.93;1.98;;;;;;;2.79;52.39;96860.93;1743128;81;21004;-76
2022/01/31 10:06:55;;;;;;;10.10;2.40;;;;;;;2.83;52.43;96867.81;1725026;81;20996;-76
2022/01/31 10:09:29;;;;;;;5.62;1.95;;;;;;;2.92;52.44;96862.89;1720512;83;21059;-76
2022/01/31 10:12:18;;;;;;;11.60;1.97;;;;;;;2.91;51.79;96869.02;1725641;82;21000;-76
2022/01/31 10:17:36;;;;;;;8.98;2.00;;;;;;;2.89;52.28;96853.34;1704575;82;21408;-76
2022/01/31 10:20:30;;;;;;;12.78;2.35;;;;;;;2.97;52.07;96853.20;1729437;82;21008;-76
2022/01/31 10:23:15;;;;;;;12.73;2.37;;;;;;;2.98;52.30;96834.41;1726745;82;21436;-76
2022/01/31 10:25:43;;;;;;;13.68;2.40;;;;;;;3.03;52.15;96834.76;1728331;82;21051;-76
2022/01/31 10:28:18;;;;;;;10.58;2.27;;;;;;;3.14;52.32;96822.79;1730719;82;21063;-76
2022/01/31 10:30:50;;;;;;;6.50;1.98;;;;;;;3.19;51.63;96812.22;1729072;82;21091;-76
2022/01/31 10:33:18;;;;;;;12.50;2.42;;;;;;;3.28;51.99;96809.42;1727405;82;21356;-76
2022/01/31 10:35:45;;;;;;;12.50;2.00;;;;;;;3.30;52.26;96803.73;1728093;82;20964;-76
2022/01/31 10:38:16;;;;;;;12.70;2.37;;;;;;;3.38;52.56;96810.55;1726135;82;21027;-76
2022/01/31 10:46:32;;;;;;;12.58;2.05;;;;;;;3.70;51.28;96807.27;1727794;82;21052;-76
2022/01/31 10:54:09;;;;;;;31.33;11.48;;;;;;;3.89;50.57;96781.09;1726358;82;21010;-76
2022/01/31 10:56:38;;;;;;;8.00;2.83;;;;;;;3.98;51.04;96780.05;1728333;82;21493;-76
2022/01/31 10:59:18;;;;;;;12.07;2.10;;;;;;;4.49;49.68;96769.66;1729029;82;20969;-76
2022/01/31 11:01:52;;;;;;;9.13;2.20;;;;;;;5.36;45.77;96771.76;1730253;82;20978;-76
2022/01/31 11:04:19;;;;;;;10.15;1.90;;;;;;;6.24;44.32;96748.55;1728992;82;21039;-76
2022/01/31 11:06:49;;;;;;;9.83;2.20;;;;;;;7.10;40.73;96738.63;1727976;82;21000;-76
2022/01/31 11:09:19;;;;;;;8.28;2.22;;;;;;;7.75;42.53;96734.50;1728409;82;21025;-76
2022/01/31 11:11:49;;;;;;;8.03;2.47;;;;;;;8.55;41.98;96729.15;1717567;82;21036;-76
2022/01/31 11:14:17;;;;;;;10.23;2.45;;;;;;;9.13;41.39;96724.54;1718070;82;21008;-76
2022/01/31 11:16:46;;;;;;;12.85;2.42;;;;;;;9.94;39.16;96716.44;1717862;82;21068;-75
2022/01/31 11:19:16;;;;;;;9.50;2.45;;;;;;;10.42;38.10;96709.27;1717698;82;21031;-77
2022/01/31 11:21:47;;;;;;;9.85;2.62;;;;;;;10.79;34.05;96709.23;1716310;82;21054;-77
2022/01/31 11:24:27;;;;;;;8.88;2.50;;;;;;;11.08;36.45;96717.48;1717884;82;21413;-77
2022/01/31 11:26:58;;;;;;;9.90;2.22;;;;;;;11.39;34.63;96713.23;1706599;82;21026;-76
2022/01/31 11:29:25;;;;;;;9.08;2.55;;;;;;;12.07;32.28;96707.81;1714533;82;20997;-76
2022/01/31 11:31:54;;;;;;;12.25;2.37;;;;;;;11.99;31.48;96701.11;1717098;82;21008;-76
2022/01/31 11:34:23;;;;;;;6.25;2.17;;;;;;;12.82;32.63;96703.08;1717135;82;21075;-76
2022/01/31 11:36:51;;;;;;;7.70;2.22;;;;;;;12.47;28.91;96711.32;1715261;82;21039;-76
2022/01/31 11:39:18;;;;;;;9.83;2.20;;;;;;;12.14;28.85;96707.86;1706190;82;20961;-76
2022/01/31 11:41:50;;;;;;;10.48;2.65;;;;;;;13.02;31.63;96714.31;1715462;82;21025;-77
2022/01/31 11:44:52;;;;;;;13.25;2.87;;;;;;;11.94;29.22;96693.87;1717030;82;21474;-76
2022/01/31 11:47:29;;;;;;;9.60;2.37;;;;;;;12.53;31.50;96684.38;1718833;82;20984;-76
2022/01/31 11:50:08;;;;;;;12.30;2.45;;;;;;;13.28;31.09;96686.59;1715426;82;21064;-77
2022/01/31 11:52:59;;;;;;;11.73;2.80;;;;;;;13.79;28.09;96680.78;1713100;82;21014;-75
2022/01/31 11:55:31;;;;;;;10.28;2.45;;;;;;;13.54;27.37;96684.17;1717401;82;21062;-76
2022/01/31 11:57:59;;;;;;;12.58;2.80;;;;;;;13.88;29.37;96669.17;1717788;82;21028;-77
2022/01/31 12:00:28;;;;;;;10.13;2.47;;;;;;;14.57;30.28;96669.59;1715921;82;20997;-74
2022/01/31 12:03:02;;;;;;;8.70;2.50;;;;;;;14.99;27.71;96666.31;1715713;82;21070;-76
2022/01/31 12:05:31;;;;;;;9.05;2.50;;;;;;;14.33;28.56;96660.95;1711022;83;21517;-76